Time;durP1;ratioP1;P1;durP2;ratioP2;P2;SDS_P1;SDS_P2;PMS_P1;PMS_P2;Temp;Humidity;BMP_temperature;BMP_pressure;BME280_temperature;BME280_humidity;BME280_pressure;Samples;Min_cycle;Max_cycle;Signal;HPM_P1;HPM_P2
2024/04/04 00:01:11;;;;;;;1.23;0.50;;;18.20;84.90;;;;;;5014691;28;20030;-34
2024/04/04 00:03:37;;;;;;;0.70;0.40;;;18.20;84.90;;;;;;5014701;28;20057;-34
2024/04/04 00:06:04;;;;;;;0.98;0.30;;;18.20;84.90;;;;;;5014337;28;20034;-34
2024/04/04 00:08:30;;;;;;;1.08;0.40;;;18.20;84.90;;;;;;5014333;28;20354;-33
2024/04/04 00:10:58;;;;;;;0.70;0.50;;;18.20;85.00;;;;;;5014178;28;20026;-34
2024/04/04 00:13:24;;;;;;;2.22;0.45;;;18.20;85.00;;;;;;5014089;28;20028;-34
2024/04/04 00:15:50;;;;;;;1.77;0.40;;;18.20;85.00;;;;;;5013911;28;20021;-34
2024/04/04 00:18:15;;;;;;;2.47;0.40;;;18.20;85.00;;;;;;5013760;28;20036;-34
2024/04/04 00:20:41;;;;;;;1.13;0.50;;;18.20;85.10;;;;;;5012987;28;20032;-33
2024/04/04 00:23:07;;;;;;;0.75;0.40;;;18.20;85.10;;;;;;5013823;28;20034;-33
2024/04/04 00:25:33;;;;;;;0.45;0.40;;;18.20;85.10;;;;;;5013489;28;20104;-34
2024/04/04 00:27:58;;;;;;;0.52;0.32;;;18.20;85.10;;;;;;5013545;28;20021;-33
2024/04/04 00:30:24;;;;;;;0.98;0.52;;;18.20;85.10;;;;;;5013646;28;20022;-33
2024/04/04 00:32:50;;;;;;;0.75;0.30;;;18.20;85.10;;;;;;5013706;28;20037;-33
2024/04/04 00:35:16;;;;;;;1.70;0.50;;;18.20;85.10;;;;;;5013970;28;20370;-34
2024/04/04 00:37:44;;;;;;;0.88;0.50;;;18.20;85.10;;;;;;5013374;28;20029;-34
2024/04/04 00:40:10;;;;;;;0.98;0.50;;;18.20;85.20;;;;;;5013440;28;20025;-34
2024/04/04 00:42:36;;;;;;;1.60;0.50;;;18.20;85.20;;;;;;5013788;28;20065;-34
2024/04/04 00:45:02;;;;;;;1.08;0.40;;;18.20;85.30;;;;;;5013323;28;20037;-34
2024/04/04 00:47:27;;;;;;;1.67;0.60;;;18.20;85.20;;;;;;5011796;28;20080;-34
2024/04/04 00:49:53;;;;;;;0.55;0.30;;;18.20;85.20;;;;;;5012267;28;20033;-34
2024/04/04 00:52:19;;;;;;;0.73;0.35;;;18.10;85.20;;;;;;5013384;28;20076;-33
2024/04/04 00:54:46;;;;;;;0.73;0.30;;;18.10;85.20;;;;;;5013415;28;20887;-33
2024/04/04 00:57:12;;;;;;;0.43;0.30;;;18.10;85.20;;;;;;5013083;28;20032;-34
2024/04/04 00:59:38;;;;;;;1.10;0.63;;;18.10;85.20;;;;;;5013458;28;20030;-33
2024/04/04 01:02:04;;;;;;;0.80;0.40;;;18.10;85.20;;;;;;5013375;28;20041;-34
2024/04/04 01:04:30;;;;;;;1.30;0.40;;;18.10;85.30;;;;;;5013268;28;20034;-34
2024/04/04 01:06:57;;;;;;;1.35;0.40;;;18.10;85.30;;;;;;5013528;28;20022;-34
2024/04/04 01:09:23;;;;;;;1.45;0.50;;;18.10;85.40;;;;;;5013351;28;20043;-33
2024/04/04 01:11:48;;;;;;;1.02;0.40;;;18.10;85.40;;;;;;5012958;28;20389;-34
2024/04/04 01:14:14;;;;;;;1.70;0.57;;;18.10;85.40;;;;;;5012065;28;20021;-34
2024/04/04 01:16:40;;;;;;;0.95;0.50;;;18.10;85.40;;;;;;5012979;28;20029;-34
2024/04/04 01:19:05;;;;;;;0.68;0.40;;;18.10;85.40;;;;;;5012991;28;20514;-33
2024/04/04 01:21:31;;;;;;;0.82;0.32;;;18.10;85.40;;;;;;5012826;28;20066;-34
2024/04/04 01:23:57;;;;;;;0.43;0.32;;;18.10;85.40;;;;;;5013053;28;20053;-33
2024/04/04 01:26:22;;;;;;;0.82;0.40;;;18.10;85.40;;;;;;5013090;28;20108;-34
2024/04/04 01:28:48;;;;;;;0.93;0.40;;;18.10;85.40;;;;;;5016867;28;20026;-34
2024/04/04 01:31:14;;;;;;;0.80;0.30;;;18.10;85.40;;;;;;5016858;28;20022;-34
2024/04/04 01:33:40;;;;;;;0.70;0.35;;;18.10;85.40;;;;;;5016901;28;20056;-34
2024/04/04 01:36:06;;;;;;;1.08;0.40;;;18.10;85.40;;;;;;5017200;28;20485;-34
2024/04/04 01:38:31;;;;;;;1.63;0.60;;;18.10;85.50;;;;;;5016621;28;20046;-34
2024/04/04 01:40:57;;;;;;;0.50;0.35;;;18.00;85.50;;;;;;5016773;28;20113;-34
2024/04/04 01:43:22;;;;;;;0.70;0.40;;;18.10;85.60;;;;;;5015631;28;20025;-34
2024/04/04 01:45:48;;;;;;;0.70;0.32;;;18.10;85.60;;;;;;5016529;28;20025;-35
2024/04/04 01:48:14;;;;;;;1.73;0.50;;;18.10;85.70;;;;;;5016560;28;20024;-34
2024/04/04 01:50:39;;;;;;;0.98;0.40;;;18.00;85.60;;;;;;5016523;28;20037;-34
2024/04/04 01:53:05;;;;;;;1.10;0.40;;;18.00;85.70;;;;;;5016581;28;20049;-34
2024/04/04 01:55:31;;;;;;;1.00;0.45;;;18.00;85.70;;;;;;5016472;28;20022;-35
2024/04/04 01:57:57;;;;;;;1.15;0.40;;;18.00;85.70;;;;;;5016439;28;20024;-34
2024/04/04 02:00:23;;;;;;;0.82;0.30;;;18.00;85.70;;;;;;5016618;28;20037;-34
2024/04/04 02:02:48;;;;;;;0.52;0.30;;;18.00;85.70;;;;;;5015138;28;20018;-34
2024/04/04 02:05:14;;;;;;;0.60;0.30;;;18.00;85.70;;;;;;5016327;28;20022;-34
2024/04/04 02:07:39;;;;;;;0.90;0.40;;;18.00;85.70;;;;;;5015658;28;20480;-34
2024/04/04 02:10:05;;;;;;;0.88;0.40;;;18.00;85.70;;;;;;5015824;28;20022;-34
2024/04/04 02:12:31;;;;;;;1.23;0.40;;;18.00;85.70;;;;;;5015337;28;20037;-34
2024/04/04 02:14:57;;;;;;;1.20;0.32;;;18.00;85.70;;;;;;5016328;28;20080;-33
2024/04/04 02:17:23;;;;;;;1.20;0.40;;;18.00;85.70;;;;;;5016239;28;20042;-32
2024/04/04 02:19:49;;;;;;;1.00;0.40;;;18.00;85.70;;;;;;5015937;28;20041;-32
2024/04/04 02:22:15;;;;;;;0.40;0.28;;;18.00;85.70;;;;;;5015454;28;20037;-33
2024/04/04 02:24:42;;;;;;;1.33;0.20;;;18.00;85.70;;;;;;5015598;28;20406;-32
2024/04/04 02:27:08;;;;;;;0.55;0.20;;;18.00;85.70;;;;;;5015669;28;20032;-33
2024/04/04 02:29:34;;;;;;;1.13;0.40;;;18.00;85.80;;;;;;5015739;28;20026;-32
2024/04/04 02:32:00;;;;;;;1.00;0.40;;;18.00;85.80;;;;;;5015751;28;20025;-32
2024/04/04 02:34:26;;;;;;;0.95;0.40;;;18.00;85.80;;;;;;5015481;28;20026;-33
2024/04/04 02:36:51;;;;;;;0.90;0.30;;;18.00;85.80;;;;;;5015188;28;20033;-34
2024/04/04 02:39:17;;;;;;;0.98;0.30;;;18.00;85.90;;;;;;5013964;28;20053;-32
2024/04/04 02:41:43;;;;;;;0.93;0.50;;;18.00;85.90;;;;;;5014312;28;20026;-32
2024/04/04 02:44:10;;;;;;;1.38;0.35;;;18.00;85.90;;;;;;5015359;28;20026;-33
2024/04/04 02:46:36;;;;;;;0.28;0.20;;;18.00;85.90;;;;;;5015316;28;20033;-33
2024/04/04 02:49:02;;;;;;;0.80;0.40;;;18.00;86.00;;;;;;5015125;28;20440;-32
2024/04/04 02:51:28;;;;;;;0.80;0.40;;;18.00;86.00;;;;;;5015156;28;20100;-34
2024/04/04 02:53:54;;;;;;;1.00;0.30;;;18.00;85.90;;;;;;5015113;28;20488;-32
2024/04/04 02:56:19;;;;;;;0.82;0.38;;;18.00;85.90;;;;;;5015143;28;20038;-33
2024/04/04 02:58:45;;;;;;;0.40;0.20;;;18.00;85.90;;;;;;5014772;28;20029;-32
2024/04/04 03:01:11;;;;;;;0.80;0.40;;;18.00;86.00;;;;;;5014753;28;20028;-32
2024/04/04 03:03:37;;;;;;;0.77;0.40;;;18.00;85.90;;;;;;5014933;28;20108;-32
2024/04/04 03:06:03;;;;;;;0.50;0.25;;;17.90;85.90;;;;;;5014728;28;20045;-30
2024/04/04 03:08:28;;;;;;;1.85;0.50;;;18.00;86.00;;;;;;5015225;28;20044;-31
2024/04/04 03:10:54;;;;;;;0.88;0.28;;;17.90;86.70;;;;;;5013825;28;20452;-31
2024/04/04 03:13:20;;;;;;;0.55;0.30;;;17.90;86.00;;;;;;5014886;28;20381;-32
2024/04/04 03:15:56;;;;;;;0.38;0.25;;;18.00;86.00;;;;;;5014898;28;20049;-31
2024/04/04 03:18:22;;;;;;;0.57;0.30;;;18.00;86.00;;;;;;5014299;28;20038;-32
2024/04/04 03:20:47;;;;;;;0.10;0.10;;;18.00;86.00;;;;;;5014432;28;20053;-31
2024/04/04 03:23:13;;;;;;;0.40;0.30;;;18.00;86.10;;;;;;5014655;28;20034;-31
2024/04/04 03:25:38;;;;;;;1.60;0.50;;;18.00;86.00;;;;;;5014427;28;20022;-32
2024/04/04 03:28:04;;;;;;;0.88;0.20;;;18.00;86.10;;;;;;5014309;28;20041;-31
2024/04/04 03:30:30;;;;;;;0.68;0.20;;;18.00;86.20;;;;;;5014335;28;20483;-32
2024/04/04 03:32:56;;;;;;;1.45;0.30;;;18.00;86.20;;;;;;5014345;28;20030;-33
2024/04/04 03:35:21;;;;;;;0.55;0.32;;;17.90;86.10;;;;;;5014411;28;20042;-32
2024/04/04 03:37:47;;;;;;;0.57;0.30;;;18.00;86.20;;;;;;5014278;28;20034;-31
2024/04/04 03:40:12;;;;;;;0.60;0.30;;;18.00;86.20;;;;;;5013216;28;20030;-32
2024/04/04 03:42:38;;;;;;;0.68;0.30;;;18.00;86.20;;;;;;5014044;28;20037;-31
2024/04/04 03:45:04;;;;;;;0.82;0.30;;;18.00;86.20;;;;;;5013832;28;20022;-32
2024/04/04 03:47:33;;;;;;;0.30;0.20;;;18.00;86.20;;;;;;5013833;28;20033;-33
2024/04/04 03:49:59;;;;;;;2.08;0.30;;;18.00;86.30;;;;;;5013681;28;20029;-32
2024/04/04 03:52:25;;;;;;;0.90;0.40;;;18.00;86.30;;;;;;5014339;28;20022;-32
2024/04/04 03:54:50;;;;;;;1.40;0.32;;;17.90;86.30;;;;;;5014472;28;20050;-32
2024/04/04 03:57:16;;;;;;;0.52;0.30;;;18.00;86.40;;;;;;5012883;28;20459;-33
2024/04/04 03:59:42;;;;;;;0.88;0.30;;;18.00;86.30;;;;;;5014370;28;20027;-33
2024/04/04 04:02:08;;;;;;;1.00;0.32;;;18.00;86.30;;;;;;5014418;28;20489;-30
2024/04/04 04:04:34;;;;;;;0.95;0.28;;;18.00;86.30;;;;;;5015177;28;20029;-33
2024/04/04 04:06:59;;;;;;;0.75;0.38;;;18.00;86.40;;;;;;5016383;28;20104;-32
2024/04/04 04:09:25;;;;;;;1.50;0.30;;;17.90;86.30;;;;;;5031704;28;20121;-32
2024/04/04 04:11:50;;;;;;;0.63;0.30;;;17.90;86.30;;;;;;5032402;28;20065;-32
2024/04/04 04:14:16;;;;;;;0.60;0.32;;;17.90;86.40;;;;;;5032346;28;20461;-32
2024/04/04 04:16:42;;;;;;;0.80;0.40;;;18.00;86.50;;;;;;5018242;28;20104;-31
2024/04/04 04:19:08;;;;;;;0.47;0.30;;;17.90;86.50;;;;;;5014044;28;20394;-31
2024/04/04 04:21:34;;;;;;;0.38;0.20;;;17.90;86.50;;;;;;5013727;28;20033;-31
2024/04/04 04:24:00;;;;;;;0.30;0.20;;;18.00;86.60;;;;;;5013727;28;20160;-32
2024/04/04 04:26:26;;;;;;;0.40;0.20;;;17.90;86.50;;;;;;5013660;28;20018;-31
2024/04/04 04:28:52;;;;;;;0.75;0.40;;;17.90;86.50;;;;;;5013722;28;20029;-33
2024/04/04 04:31:33;;;;;;;1.10;0.32;;;18.00;86.60;;;;;;5013062;28;20500;-31
2024/04/04 04:34:03;;;;;;;0.40;0.20;;;18.00;86.60;;;;;;5013714;28;20048;-33
2024/04/04 04:36:32;;;;;;;1.30;0.60;;;17.90;86.60;;;;;;5013663;28;20018;-32
2024/04/04 04:38:57;;;;;;;0.90;0.30;;;17.90;86.60;;;;;;5013450;28;20102;-32
2024/04/04 04:41:23;;;;;;;1.05;0.45;;;17.90;86.70;;;;;;5012836;28;20057;-33
2024/04/04 04:43:50;;;;;;;0.43;0.30;;;17.90;86.70;;;;;;5012560;28;20064;-32
2024/04/04 04:46:16;;;;;;;1.55;0.32;;;17.90;86.70;;;;;;5013210;28;20029;-32
2024/04/04 04:48:43;;;;;;;0.82;0.40;;;17.90;86.70;;;;;;5013036;28;20041;-31
2024/04/04 04:51:09;;;;;;;0.60;0.20;;;17.90;86.70;;;;;;5013412;28;20022;-32
2024/04/04 04:53:35;;;;;;;0.90;0.40;;;17.90;86.80;;;;;;5013233;28;20026;-32
2024/04/04 04:56:01;;;;;;;0.75;0.40;;;17.90;86.70;;;;;;5013171;28;20061;-31
2024/04/04 04:58:27;;;;;;;0.70;0.30;;;17.90;86.80;;;;;;5013223;28;20037;-31
2024/04/04 05:00:53;;;;;;;0.30;0.20;;;17.90;86.90;;;;;;5012783;28;20034;-32
2024/04/04 05:03:22;;;;;;;0.93;0.30;;;17.90;86.90;;;;;;5012279;28;20485;-30
2024/04/04 05:05:50;;;;;;;0.68;0.30;;;17.90;86.90;;;;;;5012981;28;20109;-32
2024/04/04 05:08:16;;;;;;;0.75;0.30;;;17.90;86.90;;;;;;5012591;28;20088;-33
2024/04/04 05:10:42;;;;;;;0.93;0.40;;;17.90;86.90;;;;;;5012892;28;20393;-33
2024/04/04 05:13:07;;;;;;;1.23;0.40;;;17.90;86.90;;;;;;5011887;28;20053;-32
2024/04/04 05:15:53;;;;;;;0.45;0.20;;;17.90;86.80;;;;;;5012789;28;20026;-32
2024/04/04 05:18:19;;;;;;;1.50;0.30;;;17.90;86.80;;;;;;5012059;28;20029;-31
2024/04/04 05:20:45;;;;;;;0.28;0.13;;;17.90;86.90;;;;;;5012820;28;20084;-32
2024/04/04 05:23:10;;;;;;;0.80;0.30;;;17.90;86.80;;;;;;5012646;28;20022;-32
2024/04/04 05:25:36;;;;;;;1.33;0.30;;;17.90;86.80;;;;;;5013242;28;20096;-32
2024/04/04 05:28:02;;;;;;;1.13;0.50;;;17.90;86.90;;;;;;5012666;28;20030;-31
2024/04/04 05:30:28;;;;;;;3.55;0.40;;;17.90;86.80;;;;;;5012847;28;20030;-32
2024/04/04 05:32:54;;;;;;;0.60;0.30;;;17.90;86.80;;;;;;5012867;28;20068;-31
2024/04/04 05:35:20;;;;;;;0.60;0.30;;;17.90;86.80;;;;;;5012697;28;20125;-31
2024/04/04 05:37:46;;;;;;;0.85;0.30;;;17.90;86.70;;;;;;5012384;28;20431;-32
2024/04/04 05:40:11;;;;;;;0.73;0.30;;;17.90;87.50;;;;;;5012497;28;20026;-32
2024/04/04 05:42:37;;;;;;;1.17;0.40;;;17.90;86.70;;;;;;5012699;28;20508;-32
2024/04/04 05:45:03;;;;;;;1.48;0.50;;;17.90;86.70;;;;;;5010197;28;20029;-32
2024/04/04 05:47:29;;;;;;;1.85;0.40;;;17.90;86.80;;;;;;5010865;28;20397;-32
2024/04/04 05:49:55;;;;;;;1.20;0.38;;;17.90;86.80;;;;;;5012439;28;20022;-33
2024/04/04 05:52:20;;;;;;;1.02;0.30;;;17.90;86.80;;;;;;5012713;28;20026;-31
2024/04/04 05:54:48;;;;;;;0.50;0.30;;;17.90;86.80;;;;;;5012226;28;20515;-32
2024/04/04 05:57:17;;;;;;;1.55;0.60;;;17.90;86.80;;;;;;5012410;28;20085;-31
2024/04/04 05:59:43;;;;;;;1.33;0.30;;;17.90;86.80;;;;;;5012496;28;20109;-32
2024/04/04 06:02:09;;;;;;;0.80;0.30;;;17.90;86.80;;;;;;5010951;28;20081;-31
2024/04/04 06:04:35;;;;;;;1.80;0.50;;;17.90;86.80;;;;;;5012473;28;20040;-32
2024/04/04 06:07:00;;;;;;;0.95;0.47;;;17.90;86.70;;;;;;5012270;28;20077;-32
2024/04/04 06:09:26;;;;;;;0.93;0.40;;;18.00;86.80;;;;;;5012341;28;20029;-31
2024/04/04 06:11:52;;;;;;;1.25;0.40;;;17.90;86.70;;;;;;5012366;28;20026;-32
2024/04/04 06:14:18;;;;;;;1.85;0.30;;;18.00;86.70;;;;;;5014432;28;20056;-31
2024/04/04 06:16:43;;;;;;;0.80;0.60;;;18.00;86.70;;;;;;5015463;28;20192;-32
2024/04/04 06:19:09;;;;;;;1.92;0.50;;;18.00;86.60;;;;;;5015781;28;20113;-32
2024/04/04 06:21:35;;;;;;;1.40;0.50;;;18.00;86.60;;;;;;5016253;28;20041;-32
2024/04/04 06:24:00;;;;;;;1.10;0.40;;;18.00;86.60;;;;;;5015836;28;20065;-32
2024/04/04 06:26:28;;;;;;;0.60;0.35;;;17.90;86.50;;;;;;5015632;28;20451;-31
2024/04/04 06:28:57;;;;;;;1.38;0.43;;;18.00;86.60;;;;;;5015571;28;20022;-32
2024/04/04 06:31:23;;;;;;;0.93;0.57;;;18.00;86.50;;;;;;5015545;28;20105;-33
2024/04/04 06:33:49;;;;;;;1.50;0.40;;;18.00;86.50;;;;;;5015739;28;20109;-31
2024/04/04 06:36:17;;;;;;;1.00;0.35;;;18.00;86.50;;;;;;5015554;28;20026;-31
2024/04/04 06:38:43;;;;;;;1.45;0.43;;;18.00;86.50;;;;;;5015553;28;20033;-32
2024/04/04 06:41:10;;;;;;;0.57;0.30;;;18.00;86.50;;;;;;5015434;28;20076;-32
2024/04/04 06:43:36;;;;;;;1.35;0.43;;;18.00;86.40;;;;;;5015213;28;20121;-31
2024/04/04 06:46:02;;;;;;;2.53;0.63;;;18.00;86.40;;;;;;5014895;28;20033;-31
2024/04/04 06:48:27;;;;;;;1.08;0.40;;;18.00;86.40;;;;;;5015238;28;20029;-32
2024/04/04 06:50:53;;;;;;;1.85;0.45;;;18.10;86.40;;;;;;5015319;28;20559;-31
2024/04/04 06:53:18;;;;;;;0.80;0.40;;;18.10;86.40;;;;;;5015573;28;20072;-33
2024/04/04 06:55:44;;;;;;;1.42;0.40;;;18.10;86.30;;;;;;5015388;28;20018;-32
2024/04/04 06:58:12;;;;;;;1.35;0.57;;;18.10;86.30;;;;;;5015439;28;20053;-32
2024/04/04 07:00:38;;;;;;;1.25;0.38;;;18.20;86.30;;;;;;5014919;28;20034;-33
2024/04/04 07:03:05;;;;;;;2.65;0.60;;;18.20;86.30;;;;;;5015234;28;20080;-32
2024/04/04 07:05:30;;;;;;;1.30;0.40;;;18.20;86.20;;;;;;5015009;28;20115;-32
2024/04/04 07:07:56;;;;;;;1.42;0.60;;;18.20;86.10;;;;;;5013699;28;20362;-33
2024/04/04 07:10:22;;;;;;;1.08;0.47;;;18.30;86.10;;;;;;5013670;28;20045;-33
2024/04/04 07:12:47;;;;;;;1.85;0.60;;;18.30;86.00;;;;;;5014085;28;20022;-31
2024/04/04 07:15:13;;;;;;;3.13;0.63;;;18.30;86.00;;;;;;5014308;28;20034;-33
2024/04/04 07:17:38;;;;;;;3.05;0.60;;;18.40;85.90;;;;;;5013839;28;20045;-31
2024/04/04 07:20:05;;;;;;;1.65;0.50;;;18.40;85.80;;;;;;5014342;28;20037;-32
2024/04/04 07:22:31;;;;;;;1.25;0.50;;;18.40;85.70;;;;;;5014612;28;20041;-32
2024/04/04 07:24:57;;;;;;;2.35;0.50;;;18.50;85.70;;;;;;5013874;28;20033;-32
2024/04/04 07:27:23;;;;;;;2.58;0.70;;;18.50;85.60;;;;;;5014169;28;20026;-31
2024/04/04 07:29:48;;;;;;;1.92;0.70;;;18.50;85.50;;;;;;5014664;28;20026;-32
2024/04/04 07:32:14;;;;;;;0.80;0.40;;;18.50;85.40;;;;;;5014320;28;20081;-31
2024/04/04 07:34:39;;;;;;;2.15;0.73;;;18.60;85.40;;;;;;5014312;28;20496;-32
2024/04/04 07:37:05;;;;;;;2.17;0.90;;;18.60;85.30;;;;;;5014400;28;20030;-32
2024/04/04 07:39:33;;;;;;;1.50;0.55;;;18.60;85.20;;;;;;5014396;28;20312;-32
2024/04/04 07:41:59;;;;;;;1.73;0.50;;;18.60;85.20;;;;;;5013504;28;20085;-31
2024/04/04 07:44:25;;;;;;;1.58;0.50;;;18.60;85.10;;;;;;5014469;28;20105;-33
2024/04/04 07:46:51;;;;;;;2.63;0.75;;;18.70;85.10;;;;;;5014222;28;20044;-31
2024/04/04 07:49:18;;;;;;;1.77;0.52;;;18.70;85.00;;;;;;5014015;28;20025;-32
2024/04/04 07:51:44;;;;;;;1.83;0.43;;;18.70;84.90;;;;;;5014250;28;20402;-32
2024/04/04 07:54:10;;;;;;;1.45;0.50;;;18.70;84.90;;;;;;5014173;28;20026;-31
2024/04/04 07:56:36;;;;;;;1.95;0.60;;;18.70;84.90;;;;;;5014054;28;20038;-33
2024/04/04 07:59:02;;;;;;;1.55;0.50;;;18.70;84.90;;;;;;5013821;28;20478;-33
2024/04/04 08:01:27;;;;;;;1.50;0.55;;;18.70;84.80;;;;;;5013871;28;20030;-32
2024/04/04 08:03:53;;;;;;;3.05;0.80;;;18.70;84.80;;;;;;5013797;28;20133;-32
2024/04/04 08:06:19;;;;;;;0.75;0.50;;;18.70;84.80;;;;;;5013756;28;20450;-32
2024/04/04 08:08:44;;;;;;;1.70;0.60;;;18.70;84.80;;;;;;5013425;28;20073;-32
2024/04/04 08:11:15;;;;;;;1.88;0.70;;;18.70;84.80;;;;;;5012814;28;20028;-33
2024/04/04 08:13:44;;;;;;;1.17;0.55;;;18.70;84.80;;;;;;5013860;28;20046;-30
2024/04/04 08:16:10;;;;;;;2.13;0.80;;;18.70;84.80;;;;;;5013504;28;20040;-32
2024/04/04 08:18:36;;;;;;;2.28;0.80;;;18.70;84.90;;;;;;5049254;23;20142;-32
2024/04/04 08:21:02;;;;;;;0.88;0.40;;;18.70;84.90;;;;;;5032432;28;20046;-32
2024/04/04 08:23:30;;;;;;;2.08;0.73;;;18.70;84.90;;;;;;5047675;28;20064;-32
2024/04/04 08:25:59;;;;;;;1.52;0.60;;;18.70;84.90;;;;;;5032224;28;20018;-33
2024/04/04 08:28:26;;;;;;;2.28;0.60;;;18.70;84.90;;;;;;5033414;28;20036;-32
2024/04/04 08:30:58;;;;;;;1.42;0.60;;;18.70;84.90;;;;;;5033356;28;20075;-32
2024/04/04 08:33:25;;;;;;;1.40;0.60;;;18.70;84.90;;;;;;5032534;28;20029;-32
2024/04/04 08:35:51;;;;;;;1.50;0.60;;;18.70;84.90;;;;;;5032543;28;20017;-31
2024/04/04 08:38:17;;;;;;;1.42;0.52;;;18.70;84.90;;;;;;5033790;28;20064;-31
2024/04/04 08:40:42;;;;;;;1.65;0.52;;;18.70;84.90;;;;;;5032987;28;20053;-32
2024/04/04 08:43:09;;;;;;;1.48;0.55;;;18.70;84.90;;;;;;5033199;28;20155;-32
2024/04/04 08:45:49;;;;;;;1.15;0.50;;;18.70;84.90;;;;;;5032640;28;20017;-32
2024/04/04 08:48:17;;;;;;;1.60;0.60;;;18.70;84.90;;;;;;5032628;28;20025;-32
2024/04/04 08:50:47;;;;;;;1.33;0.60;;;18.70;85.00;;;;;;5032647;28;20044;-32
2024/04/04 08:53:19;;;;;;;2.10;0.57;;;18.70;85.00;;;;;;5032621;28;20472;-32
2024/04/04 08:55:46;;;;;;;2.53;0.70;;;18.60;85.00;;;;;;5033563;28;20021;-32
2024/04/04 08:58:13;;;;;;;2.60;0.60;;;18.60;85.00;;;;;;5032298;28;20024;-32
2024/04/04 09:00:40;;;;;;;1.55;0.40;;;18.60;85.00;;;;;;5032858;28;20487;-32
2024/04/04 09:03:06;;;;;;;1.08;0.50;;;18.60;85.00;;;;;;5033163;28;20079;-33
2024/04/04 09:05:32;;;;;;;1.10;0.40;;;18.60;85.00;;;;;;5008274;28;20503;-32
2024/04/04 09:07:57;;;;;;;1.02;0.50;;;18.60;85.10;;;;;;5012462;28;20030;-31
2024/04/04 09:10:23;;;;;;;1.77;0.70;;;18.60;85.10;;;;;;5012114;28;20061;-32
2024/04/04 09:13:02;;;;;;;1.17;0.80;;;18.60;85.10;;;;;;5012095;28;20209;-31
2024/04/04 09:15:28;;;;;;;0.75;0.32;;;18.70;85.20;;;;;;5012513;28;20033;-32
2024/04/04 09:18:06;;;;;;;1.33;0.70;;;18.60;85.10;;;;;;5043842;28;20042;-32
2024/04/04 09:20:33;;;;;;;1.70;0.70;;;18.60;85.20;;;;;;5013371;28;20478;-32
2024/04/04 09:23:01;;;;;;;0.68;0.40;;;18.60;85.10;;;;;;5012296;28;20109;-32
2024/04/04 09:25:29;;;;;;;1.85;0.73;;;18.60;85.20;;;;;;5013562;28;20376;-32
2024/04/04 09:27:54;;;;;;;1.60;0.60;;;18.70;85.20;;;;;;5012791;28;20025;-31
2024/04/04 09:30:25;;;;;;;1.50;0.50;;;18.60;85.10;;;;;;5013454;28;20022;-32
2024/04/04 09:33:00;;;;;;;1.77;0.70;;;18.60;85.10;;;;;;5013441;28;20108;-32
2024/04/04 09:35:26;;;;;;;1.90;0.50;;;18.70;85.20;;;;;;5011845;28;20030;-32
2024/04/04 09:37:52;;;;;;;2.10;0.70;;;18.70;85.20;;;;;;5012255;28;20504;-32
2024/04/04 09:40:18;;;;;;;1.27;0.60;;;18.60;85.20;;;;;;5012538;28;20101;-33
2024/04/04 09:42:46;;;;;;;1.92;0.50;;;18.70;85.20;;;;;;5013071;28;20440;-32
2024/04/04 09:45:13;;;;;;;2.78;0.88;;;18.70;85.30;;;;;;5011557;28;20092;-31
2024/04/04 09:47:43;;;;;;;2.40;0.60;;;18.70;85.20;;;;;;5011551;28;20401;-32
2024/04/04 09:50:09;;;;;;;2.47;0.60;;;18.70;85.20;;;;;;5016485;28;20085;-32
2024/04/04 09:52:37;;;;;;;1.48;0.60;;;18.70;85.20;;;;;;5015884;28;20026;-32
2024/04/04 09:55:06;;;;;;;1.33;0.45;;;18.70;85.20;;;;;;5015649;28;20018;-32
2024/04/04 09:57:32;;;;;;;1.08;0.47;;;18.70;85.20;;;;;;5015798;28;20029;-32
2024/04/04 10:00:14;;;;;;;1.63;0.57;;;18.70;85.20;;;;;;5016604;28;20026;-32
2024/04/04 10:03:00;;;;;;;2.20;0.50;;;18.70;85.10;;;;;;5016058;28;20021;-32
2024/04/04 10:05:33;;;;;;;1.73;0.70;;;18.80;85.10;;;;;;5015917;28;20026;-32
2024/04/04 10:08:09;;;;;;;1.85;0.60;;;18.80;85.10;;;;;;5015385;28;20022;-32
2024/04/04 10:10:35;;;;;;;3.20;0.57;;;18.70;85.10;;;;;;5015618;28;20111;-32
2024/04/04 10:13:08;;;;;;;1.10;0.40;;;18.70;85.10;;;;;;5015821;28;20489;-32
2024/04/04 10:15:52;;;;;;;1.02;0.47;;;18.80;85.10;;;;;;5015551;28;20029;-31
2024/04/04 10:18:19;;;;;;;1.40;0.60;;;18.80;85.10;;;;;;5015196;28;20480;-32
2024/04/04 10:20:55;;;;;;;1.10;0.40;;;18.80;85.10;;;;;;5015848;28;20113;-32
2024/04/04 10:23:28;;;;;;;0.98;0.50;;;18.80;85.80;;;;;;5015435;28;20024;-32
2024/04/04 10:26:16;;;;;;;1.65;0.50;;;18.80;85.00;;;;;;5016188;28;20045;-32
2024/04/04 10:28:46;;;;;;;1.98;0.70;;;18.80;84.90;;;;;;5015479;28;20112;-32
2024/04/04 10:31:12;;;;;;;1.92;0.70;;;18.80;85.00;;;;;;5013668;28;20065;-32
2024/04/04 10:33:38;;;;;;;1.10;0.50;;;18.80;84.90;;;;;;5015228;28;20045;-31
2024/04/04 10:36:07;;;;;;;1.08;0.45;;;18.90;84.90;;;;;;5014731;28;20033;-31
2024/04/04 10:38:34;;;;;;;1.58;0.50;;;18.80;84.80;;;;;;5015436;28;20034;-31
2024/04/04 10:41:00;;;;;;;1.20;0.60;;;18.90;84.90;;;;;;5015215;28;20025;-32
2024/04/04 10:43:26;;;;;;;0.75;0.38;;;18.90;84.90;;;;;;5014645;28;20046;-32
2024/04/04 10:45:52;;;;;;;2.38;0.70;;;18.80;85.00;;;;;;5014728;28;20033;-31
2024/04/04 10:48:17;;;;;;;2.97;0.90;;;18.80;86.80;;;;;;5014254;28;20026;-32
2024/04/04 10:50:43;;;;;;;3.25;0.80;;;18.90;86.70;;;;;;5014551;28;20432;-32
2024/04/04 10:53:09;;;;;;;3.30;1.20;;;18.90;87.00;;;;;;5014618;28;20029;-31
2024/04/04 10:55:35;;;;;;;3.88;1.10;;;18.90;87.10;;;;;;5014765;28;20026;-31
2024/04/04 10:58:01;;;;;;;4.05;0.98;;;18.90;87.20;;;;;;5014457;28;20076;-32
2024/04/04 11:00:29;;;;;;;4.30;1.08;;;19.00;87.20;;;;;;5013433;28;20105;-32
2024/04/04 11:02:58;;;;;;;2.35;0.80;;;19.00;87.20;;;;;;5014844;28;20033;-32
2024/04/04 11:05:23;;;;;;;3.70;0.95;;;19.00;87.10;;;;;;5014817;28;20022;-32
2024/04/04 11:07:57;;;;;;;3.03;0.80;;;19.00;87.10;;;;;;5013976;28;20095;-31
2024/04/04 11:10:23;;;;;;;5.37;1.27;;;19.00;87.00;;;;;;5014003;28;20022;-31
2024/04/04 11:12:49;;;;;;;2.40;0.75;;;19.10;86.90;;;;;;5014516;28;20022;-32
2024/04/04 11:15:15;;;;;;;2.42;0.90;;;19.10;86.80;;;;;;5014837;28;20041;-32
2024/04/04 11:17:41;;;;;;;1.67;0.88;;;19.10;86.70;;;;;;5013744;28;20076;-32
2024/04/04 11:20:08;;;;;;;2.20;0.63;;;19.10;86.70;;;;;;5013680;28;20040;-31
2024/04/04 11:22:37;;;;;;;2.97;0.90;;;19.20;86.60;;;;;;5014311;28;20038;-31
2024/04/04 11:25:07;;;;;;;1.48;0.65;;;19.20;86.40;;;;;;5014712;28;20061;-31
2024/04/04 11:27:33;;;;;;;2.03;0.63;;;19.20;86.40;;;;;;5014122;28;20026;-32
2024/04/04 11:29:59;;;;;;;1.77;0.90;;;19.20;86.30;;;;;;5014898;28;20030;-32
2024/04/04 11:32:25;;;;;;;3.55;1.15;;;19.20;86.20;;;;;;5014558;28;20115;-31
2024/04/04 11:34:51;;;;;;;4.55;0.88;;;19.30;86.10;;;;;;5014864;28;20030;-32
2024/04/04 11:37:19;;;;;;;4.63;0.90;;;19.20;86.00;;;;;;5014293;28;20026;-34
2024/04/04 11:39:45;;;;;;;3.22;0.88;;;19.30;86.00;;;;;;5014168;28;20033;-33
2024/04/04 11:42:11;;;;;;;3.60;0.93;;;19.30;85.90;;;;;;5014142;28;20018;-32
2024/04/04 11:44:37;;;;;;;2.80;0.88;;;19.30;85.80;;;;;;5013988;28;20386;-32
2024/04/04 11:47:03;;;;;;;2.38;1.00;;;19.30;85.80;;;;;;5013659;28;20021;-31
2024/04/04 11:49:29;;;;;;;3.67;0.80;;;19.30;85.80;;;;;;5013854;28;20061;-31
2024/04/04 11:51:56;;;;;;;2.97;0.93;;;19.30;86.40;;;;;;5014853;28;20449;-32
2024/04/04 11:54:22;;;;;;;2.33;0.80;;;19.40;85.70;;;;;;5013728;28;20053;-32
2024/04/04 11:56:48;;;;;;;2.80;0.93;;;19.40;85.70;;;;;;5013952;28;20056;-32
2024/04/04 11:59:13;;;;;;;2.75;0.75;;;19.40;85.60;;;;;;5013650;28;20089;-32
2024/04/04 12:01:39;;;;;;;1.75;0.90;;;19.40;86.40;;;;;;5013044;28;20157;-31
2024/04/04 12:04:08;;;;;;;4.65;0.93;;;19.40;85.60;;;;;;5014166;28;20117;-32
2024/04/04 12:06:33;;;;;;;3.40;0.85;;;19.40;85.60;;;;;;5013893;28;20030;-35
2024/04/04 12:08:59;;;;;;;2.55;1.00;;;19.40;85.60;;;;;;5013126;28;20018;-32
2024/04/04 12:11:24;;;;;;;2.22;0.80;;;19.40;85.50;;;;;;5013189;28;20412;-32
2024/04/04 12:13:53;;;;;;;2.42;0.80;;;19.50;85.50;;;;;;5013921;28;20018;-33
2024/04/04 12:16:20;;;;;;;1.98;0.68;;;19.50;85.40;;;;;;5012980;28;20033;-31
2024/04/04 12:21:30;;;;;;;2.33;0.80;;;19.50;85.30;;;;;;5013401;28;20087;-33
2024/04/04 12:23:56;;;;;;;2.05;0.70;;;19.60;85.30;;;;;;5013708;28;20033;-31
2024/04/04 12:26:22;;;;;;;2.92;0.50;;;19.60;85.20;;;;;;5013263;28;20498;-32
2024/04/04 12:28:53;;;;;;;2.53;0.75;;;19.70;85.10;;;;;;5012866;28;20026;-32
2024/04/04 12:31:22;;;;;;;1.45;0.57;;;19.70;85.10;;;;;;5012629;28;20025;-32
2024/04/04 12:33:47;;;;;;;3.30;0.50;;;19.70;85.00;;;;;;5013089;28;20022;-31
2024/04/04 12:36:14;;;;;;;2.03;0.65;;;19.70;85.00;;;;;;5012769;28;20075;-31
2024/04/04 12:38:39;;;;;;;1.77;0.70;;;19.80;84.90;;;;;;5012702;28;20030;-31
2024/04/04 12:41:06;;;;;;;1.40;0.60;;;19.80;84.80;;;;;;5012762;28;20522;-32
2024/04/04 12:43:31;;;;;;;1.20;0.50;;;19.80;84.80;;;;;;5012879;28;20093;-32
2024/04/04 12:46:03;;;;;;;2.15;0.68;;;19.80;84.70;;;;;;5012569;28;20064;-32
2024/04/04 12:48:32;;;;;;;2.35;0.50;;;19.80;84.60;;;;;;5012198;28;20511;-32